Aviation Digital Data Service (ADDS)

Output produced by METARs form (2055 UTC 22 June 2018)
found at http://aviationweather.gov/adds/metars/
 
KLFT 222053Z 22013G18KT 10SM FEW037 SCT048 33/25 A2987 RMK AO2 SLP115 T03280250 56022